sensor_id;sensor_type;location;lat;lon;timestamp;pressure;altitude;pressure_sealevel;temperature;humidity
84443;BME280;74681;0.000;0.000;2024-02-21T00:01:16;99604.59;;;22.92;51.30
84443;BME280;74681;0.000;0.000;2024-02-21T00:03:41;99603.78;;;22.92;51.33
84443;BME280;74681;0.000;0.000;2024-02-21T00:06:07;99604.06;;;22.90;51.47
84443;BME280;74681;0.000;0.000;2024-02-21T00:08:32;99607.88;;;22.89;51.22
84443;BME280;74681;0.000;0.000;2024-02-21T00:10:57;99604.06;;;22.90;51.21
84443;BME280;74681;0.000;0.000;2024-02-21T00:13:22;99606.25;;;22.88;51.41
84443;BME280;74681;0.000;0.000;2024-02-21T00:15:48;99602.69;;;22.88;51.02
84443;BME280;74681;0.000;0.000;2024-02-21T00:18:13;99602.69;;;22.88;51.07
84443;BME280;74681;0.000;0.000;2024-02-21T00:20:38;99602.16;;;22.86;51.27
84443;BME280;74681;0.000;0.000;2024-02-21T00:23:04;99599.44;;;22.86;51.05
84443;BME280;74681;0.000;0.000;2024-02-21T00:25:29;99599.44;;;22.86;50.94
84443;BME280;74681;0.000;0.000;2024-02-21T00:27:54;99593.41;;;22.84;51.19
84443;BME280;74681;0.000;0.000;2024-02-21T00:30:20;99593.41;;;22.84;50.93
84443;BME280;74681;0.000;0.000;2024-02-21T00:32:46;99589.03;;;22.83;51.15
84443;BME280;74681;0.000;0.000;2024-02-21T00:35:11;99586.31;;;22.83;50.87
84443;BME280;74681;0.000;0.000;2024-02-21T00:37:37;99588.22;;;22.82;51.06
84443;BME280;74681;0.000;0.000;2024-02-21T00:40:02;99583.84;;;22.81;51.04
84443;BME280;74681;0.000;0.000;2024-02-21T00:42:28;99581.91;;;22.82;50.93
84443;BME280;74681;0.000;0.000;2024-02-21T00:44:53;99574.81;;;22.81;50.93
84443;BME280;74681;0.000;0.000;2024-02-21T00:47:18;99569.63;;;22.79;50.91
84443;BME280;74681;0.000;0.000;2024-02-21T00:49:44;99558.66;;;22.79;51.06
84443;BME280;74681;0.000;0.000;2024-02-21T00:52:09;99560.56;;;22.79;50.95
84443;BME280;74681;0.000;0.000;2024-02-21T00:54:34;99569.63;;;22.79;50.82
84443;BME280;74681;0.000;0.000;2024-02-21T00:57:00;99552.66;;;22.77;50.84
84443;BME280;74681;0.000;0.000;2024-02-21T00:59:25;99563.88;;;22.76;50.85
84443;BME280;74681;0.000;0.000;2024-02-21T01:04:57;99560.34;;;22.75;50.84
84443;BME280;74681;0.000;0.000;2024-02-21T01:07:22;99557.59;;;22.75;51.08
84443;BME280;74681;0.000;0.000;2024-02-21T01:09:47;99563.09;;;22.75;50.91
84443;BME280;74681;0.000;0.000;2024-02-21T01:12:12;99566.09;;;22.74;51.08
84443;BME280;74681;0.000;0.000;2024-02-21T01:14:38;99558.97;;;22.73;50.87
84443;BME280;74681;0.000;0.000;2024-02-21T01:19:28;99559.25;;;22.71;51.09
84443;BME280;74681;0.000;0.000;2024-02-21T01:21:54;99548.31;;;22.71;51.04
84443;BME280;74681;0.000;0.000;2024-02-21T01:24:19;99543.94;;;22.70;50.87
84443;BME280;74681;0.000;0.000;2024-02-21T01:26:44;99553.25;;;22.69;50.89
84443;BME280;74681;0.000;0.000;2024-02-21T01:29:09;99548.59;;;22.70;51.12
84443;BME280;74681;0.000;0.000;2024-02-21T01:31:35;99546.13;;;22.68;50.95
84443;BME280;74681;0.000;0.000;2024-02-21T01:34:00;99542.31;;;22.69;51.09
84443;BME280;74681;0.000;0.000;2024-02-21T01:36:25;99535.19;;;22.68;50.83
84443;BME280;74681;0.000;0.000;2024-02-21T01:38:51;99538.22;;;22.67;50.87
84443;BME280;74681;0.000;0.000;2024-02-21T01:41:16;99545.59;;;22.66;50.92
84443;BME280;74681;0.000;0.000;2024-02-21T01:43:41;99540.13;;;22.66;50.83
84443;BME280;74681;0.000;0.000;2024-02-21T01:46:07;99547.53;;;22.66;50.86
84443;BME280;74681;0.000;0.000;2024-02-21T01:48:32;99547.53;;;22.66;51.04
84443;BME280;74681;0.000;0.000;2024-02-21T01:50:58;99542.03;;;22.66;50.84
84443;BME280;74681;0.000;0.000;2024-02-21T01:53:30;99536.84;;;22.64;51.07
84443;BME280;74681;0.000;0.000;2024-02-21T01:55:57;99547.78;;;22.64;50.98
84443;BME280;74681;0.000;0.000;2024-02-21T01:58:22;99538.78;;;22.64;51.04
84443;BME280;74681;0.000;0.000;2024-02-21T02:00:48;99541.53;;;22.64;50.91
84443;BME280;74681;0.000;0.000;2024-02-21T02:03:15;99535.19;;;22.63;51.09
84443;BME280;74681;0.000;0.000;2024-02-21T02:05:44;99525.31;;;22.62;51.14
84443;BME280;74681;0.000;0.000;2024-02-21T02:08:09;99528.06;;;22.62;51.23
84443;BME280;74681;0.000;0.000;2024-02-21T02:10:35;99527.53;;;22.60;51.00
84443;BME280;74681;0.000;0.000;2024-02-21T02:13:00;99520.16;;;22.60;50.92
84443;BME280;74681;0.000;0.000;2024-02-21T02:15:26;99530.28;;;22.60;51.07
84443;BME280;74681;0.000;0.000;2024-02-21T02:17:51;99523.16;;;22.59;51.00
84443;BME280;74681;0.000;0.000;2024-02-21T02:20:16;99523.16;;;22.59;51.13
84443;BME280;74681;0.000;0.000;2024-02-21T02:22:42;99520.41;;;22.59;50.93
84443;BME280;74681;0.000;0.000;2024-02-21T02:25:08;99513.31;;;22.58;50.92
84443;BME280;74681;0.000;0.000;2024-02-21T02:27:40;99514.41;;;22.57;51.21
84443;BME280;74681;0.000;0.000;2024-02-21T02:30:07;99508.13;;;22.56;51.30
84443;BME280;74681;0.000;0.000;2024-02-21T02:32:32;99520.72;;;22.57;51.18
84443;BME280;74681;0.000;0.000;2024-02-21T02:34:57;99512.78;;;22.56;51.21
84443;BME280;74681;0.000;0.000;2024-02-21T02:37:23;99512.78;;;22.56;51.18
84443;BME280;74681;0.000;0.000;2024-02-21T02:39:48;99509.25;;;22.55;51.18
84443;BME280;74681;0.000;0.000;2024-02-21T02:42:14;99516.63;;;22.55;51.07
84443;BME280;74681;0.000;0.000;2024-02-21T02:44:39;99509.50;;;22.54;51.16
84443;BME280;74681;0.000;0.000;2024-02-21T02:47:05;99523.19;;;22.54;51.15
84443;BME280;74681;0.000;0.000;2024-02-21T02:49:30;99516.06;;;22.53;51.36
84443;BME280;74681;0.000;0.000;2024-02-21T02:51:55;99519.63;;;22.53;51.02
84443;BME280;74681;0.000;0.000;2024-02-21T02:54:21;99509.81;;;22.52;51.05
84443;BME280;74681;0.000;0.000;2024-02-21T02:56:46;99515.28;;;22.52;51.12
84443;BME280;74681;0.000;0.000;2024-02-21T02:59:11;99513.63;;;22.51;51.30
84443;BME280;74681;0.000;0.000;2024-02-21T03:01:37;99508.16;;;22.51;51.15
84443;BME280;74681;0.000;0.000;2024-02-21T03:04:03;99510.06;;;22.51;51.13
84443;BME280;74681;0.000;0.000;2024-02-21T03:06:28;99509.25;;;22.50;51.06
84443;BME280;74681;0.000;0.000;2024-02-21T03:08:54;99508.44;;;22.50;51.16
84443;BME280;74681;0.000;0.000;2024-02-21T03:11:19;99519.41;;;22.50;51.20
84443;BME280;74681;0.000;0.000;2024-02-21T03:13:46;99518.56;;;22.49;51.14
84443;BME280;74681;0.000;0.000;2024-02-21T03:16:11;99511.44;;;22.48;51.04
84443;BME280;74681;0.000;0.000;2024-02-21T03:18:36;99518.84;;;22.48;51.22
84443;BME280;74681;0.000;0.000;2024-02-21T03:21:02;99518.84;;;22.48;51.13
84443;BME280;74681;0.000;0.000;2024-02-21T03:23:27;99522.69;;;22.47;51.10
84443;BME280;74681;0.000;0.000;2024-02-21T03:25:52;99513.66;;;22.46;51.33
84443;BME280;74681;0.000;0.000;2024-02-21T03:28:18;99519.97;;;22.47;51.39
84443;BME280;74681;0.000;0.000;2024-02-21T03:30:43;99521.88;;;22.46;51.36
84443;BME280;74681;0.000;0.000;2024-02-21T03:33:08;99523.78;;;22.46;51.35
84443;BME280;74681;0.000;0.000;2024-02-21T03:35:34;99520.22;;;22.45;51.36
84443;BME280;74681;0.000;0.000;2024-02-21T03:37:59;99521.34;;;22.44;51.22
84443;BME280;74681;0.000;0.000;2024-02-21T03:40:24;99522.13;;;22.45;51.14
84443;BME280;74681;0.000;0.000;2024-02-21T03:42:50;99517.78;;;22.44;51.16
84443;BME280;74681;0.000;0.000;2024-02-21T03:45:15;99521.34;;;22.44;51.20
84443;BME280;74681;0.000;0.000;2024-02-21T03:47:40;99526.00;;;22.44;51.48
84443;BME280;74681;0.000;0.000;2024-02-21T03:50:06;99518.88;;;22.43;51.48
84443;BME280;74681;0.000;0.000;2024-02-21T03:52:31;99520.78;;;22.42;51.33
84443;BME280;74681;0.000;0.000;2024-02-21T03:54:57;99527.91;;;22.43;51.28
84443;BME280;74681;0.000;0.000;2024-02-21T03:57:22;99528.16;;;22.42;51.32
84443;BME280;74681;0.000;0.000;2024-02-21T03:59:50;99530.91;;;22.42;51.26
84443;BME280;74681;0.000;0.000;2024-02-21T04:02:16;99524.63;;;22.41;51.33
84443;BME280;74681;0.000;0.000;2024-02-21T04:04:43;99524.63;;;22.41;51.43
84443;BME280;74681;0.000;0.000;2024-02-21T04:07:08;99529.28;;;22.41;51.18
84443;BME280;74681;0.000;0.000;2024-02-21T04:09:33;99526.56;;;22.41;51.37
84443;BME280;74681;0.000;0.000;2024-02-21T04:11:59;99530.09;;;22.41;51.46
84443;BME280;74681;0.000;0.000;2024-02-21T04:14:24;99528.47;;;22.40;51.53
84443;BME280;74681;0.000;0.000;2024-02-21T04:16:50;99523.00;;;22.40;51.38
84443;BME280;74681;0.000;0.000;2024-02-21T04:19:15;99532.28;;;22.39;51.22
84443;BME280;74681;0.000;0.000;2024-02-21T04:21:40;99530.38;;;22.40;51.41
84443;BME280;74681;0.000;0.000;2024-02-21T04:24:06;99530.66;;;22.38;51.45
84443;BME280;74681;0.000;0.000;2024-02-21T04:26:31;99536.97;;;22.39;51.41
84443;BME280;74681;0.000;0.000;2024-02-21T04:28:56;99539.69;;;22.39;51.41
84443;BME280;74681;0.000;0.000;2024-02-21T04:31:22;99539.69;;;22.39;51.46
84443;BME280;74681;0.000;0.000;2024-02-21T04:33:47;99535.31;;;22.38;51.22
84443;BME280;74681;0.000;0.000;2024-02-21T04:36:12;99532.59;;;22.38;51.41
84443;BME280;74681;0.000;0.000;2024-02-21T04:38:38;99535.31;;;22.38;51.43
84443;BME280;74681;0.000;0.000;2024-02-21T04:41:04;99527.09;;;22.38;51.24
84443;BME280;74681;0.000;0.000;2024-02-21T04:43:29;99529.84;;;22.38;51.43
84443;BME280;74681;0.000;0.000;2024-02-21T04:45:54;99527.09;;;22.38;51.44
84443;BME280;74681;0.000;0.000;2024-02-21T04:48:20;99520.00;;;22.37;51.35
84443;BME280;74681;0.000;0.000;2024-02-21T04:50:45;99523.56;;;22.37;51.53
84443;BME280;74681;0.000;0.000;2024-02-21T04:53:11;99522.72;;;22.37;51.41
84443;BME280;74681;0.000;0.000;2024-02-21T04:55:36;99523.84;;;22.36;51.55
84443;BME280;74681;0.000;0.000;2024-02-21T04:58:01;99530.09;;;22.36;51.53
84443;BME280;74681;0.000;0.000;2024-02-21T05:00:27;99525.75;;;22.35;51.23
84443;BME280;74681;0.000;0.000;2024-02-21T05:02:52;99534.78;;;22.36;51.21
84443;BME280;74681;0.000;0.000;2024-02-21T05:05:18;99531.22;;;22.35;51.51
84443;BME280;74681;0.000;0.000;2024-02-21T05:07:43;99543.00;;;22.36;51.47
84443;BME280;74681;0.000;0.000;2024-02-21T05:10:08;99536.69;;;22.35;51.40
84443;BME280;74681;0.000;0.000;2024-02-21T05:12:34;99544.91;;;22.35;51.49
84443;BME280;74681;0.000;0.000;2024-02-21T05:15:00;99535.88;;;22.35;51.63
84443;BME280;74681;0.000;0.000;2024-02-21T05:17:25;99547.63;;;22.35;51.51
84443;BME280;74681;0.000;0.000;2024-02-21T05:19:50;99544.09;;;22.35;51.45
84443;BME280;74681;0.000;0.000;2024-02-21T05:22:16;99543.25;;;22.34;51.52
84443;BME280;74681;0.000;0.000;2024-02-21T05:24:42;99541.34;;;22.35;51.46
84443;BME280;74681;0.000;0.000;2024-02-21T05:27:07;99544.91;;;22.35;51.60
84443;BME280;74681;0.000;0.000;2024-02-21T05:29:33;99545.16;;;22.34;51.55
84443;BME280;74681;0.000;0.000;2024-02-21T05:31:58;99542.44;;;22.34;51.37
84443;BME280;74681;0.000;0.000;2024-02-21T05:34:23;99539.69;;;22.34;51.54
84443;BME280;74681;0.000;0.000;2024-02-21T05:36:49;99533.44;;;22.33;51.53
84443;BME280;74681;0.000;0.000;2024-02-21T05:39:17;99536.16;;;22.33;51.51
84443;BME280;74681;0.000;0.000;2024-02-21T05:41:43;99536.97;;;22.34;51.46
84443;BME280;74681;0.000;0.000;2024-02-21T05:44:08;99534.22;;;22.34;51.39
84443;BME280;74681;0.000;0.000;2024-02-21T05:46:34;99541.66;;;22.33;51.63
84443;BME280;74681;0.000;0.000;2024-02-21T05:49:00;99541.66;;;22.33;51.53
84443;BME280;74681;0.000;0.000;2024-02-21T05:51:25;99540.00;;;22.32;51.51
84443;BME280;74681;0.000;0.000;2024-02-21T05:53:50;99540.00;;;22.32;51.49
84443;BME280;74681;0.000;0.000;2024-02-21T05:56:16;99546.28;;;22.33;51.63
84443;BME280;74681;0.000;0.000;2024-02-21T05:58:43;99554.50;;;22.33;51.38
84443;BME280;74681;0.000;0.000;2024-02-21T06:01:08;99554.75;;;22.31;51.41
84443;BME280;74681;0.000;0.000;2024-02-21T06:03:33;99561.06;;;22.32;51.56
84443;BME280;74681;0.000;0.000;2024-02-21T06:06:02;99565.69;;;22.31;51.36
84443;BME280;74681;0.000;0.000;2024-02-21T06:08:28;99571.19;;;22.31;51.50
84443;BME280;74681;0.000;0.000;2024-02-21T06:10:53;99566.53;;;22.32;51.58
84443;BME280;74681;0.000;0.000;2024-02-21T06:13:19;99563.78;;;22.32;53.54
84443;BME280;74681;0.000;0.000;2024-02-21T06:15:46;99571.16;;;22.36;54.18
84443;BME280;74681;0.000;0.000;2024-02-21T06:18:11;99573.31;;;22.39;54.36
84443;BME280;74681;0.000;0.000;2024-02-21T06:20:37;99578.81;;;22.44;54.74
84443;BME280;74681;0.000;0.000;2024-02-21T06:23:05;99573.34;;;22.44;54.95
84443;BME280;74681;0.000;0.000;2024-02-21T06:25:30;99576.88;;;22.45;55.18
84443;BME280;74681;0.000;0.000;2024-02-21T06:27:55;99572.47;;;22.49;55.38
84443;BME280;74681;0.000;0.000;2024-02-21T06:30:21;99575.47;;;22.52;55.42
84443;BME280;74681;0.000;0.000;2024-02-21T06:32:46;99576.84;;;22.55;55.58
84443;BME280;74681;0.000;0.000;2024-02-21T06:35:11;99576.00;;;22.54;55.79
84443;BME280;74681;0.000;0.000;2024-02-21T06:37:36;99572.97;;;22.56;55.81
84443;BME280;74681;0.000;0.000;2024-02-21T06:40:03;99578.72;;;22.59;56.52
84443;BME280;74681;0.000;0.000;2024-02-21T06:42:29;99571.84;;;22.62;57.53
84443;BME280;74681;0.000;0.000;2024-02-21T06:44:54;99578.72;;;22.70;57.74
84443;BME280;74681;0.000;0.000;2024-02-21T06:47:21;99585.53;;;22.67;57.82
84443;BME280;74681;0.000;0.000;2024-02-21T06:49:50;99588.06;;;22.64;57.68
84443;BME280;74681;0.000;0.000;2024-02-21T06:52:18;99587.19;;;22.63;58.13
84443;BME280;74681;0.000;0.000;2024-02-21T06:54:48;99585.31;;;22.64;57.98
84443;BME280;74681;0.000;0.000;2024-02-21T06:57:13;99591.59;;;22.64;57.33
84443;BME280;74681;0.000;0.000;2024-02-21T06:59:40;99586.38;;;22.62;57.51
84443;BME280;74681;0.000;0.000;2024-02-21T07:02:05;99591.03;;;22.62;57.25
84443;BME280;74681;0.000;0.000;2024-02-21T07:04:31;99600.06;;;22.62;57.43
84443;BME280;74681;0.000;0.000;2024-02-21T07:06:56;99594.88;;;22.61;57.12
84443;BME280;74681;0.000;0.000;2024-02-21T07:09:21;99606.09;;;22.59;56.79
84443;BME280;74681;0.000;0.000;2024-02-21T07:11:47;99602.81;;;22.57;56.66
84443;BME280;74681;0.000;0.000;2024-02-21T07:14:13;99604.75;;;22.57;56.80
84443;BME280;74681;0.000;0.000;2024-02-21T07:16:39;99611.28;;;22.56;56.39
84443;BME280;74681;0.000;0.000;2024-02-21T07:19:04;99617.88;;;22.55;56.33
84443;BME280;74681;0.000;0.000;2024-02-21T07:21:30;99611.59;;;22.54;56.41
84443;BME280;74681;0.000;0.000;2024-02-21T07:23:55;99616.25;;;22.54;56.00
84443;BME280;74681;0.000;0.000;2024-02-21T07:26:20;99613.50;;;22.54;56.20
84443;BME280;74681;0.000;0.000;2024-02-21T07:28:47;99612.69;;;22.53;56.15
84443;BME280;74681;0.000;0.000;2024-02-21T07:31:12;99618.16;;;22.53;56.15
84443;BME280;74681;0.000;0.000;2024-02-21T07:33:37;99620.06;;;22.53;55.94
84443;BME280;74681;0.000;0.000;2024-02-21T07:36:09;99617.31;;;22.53;56.07
84443;BME280;74681;0.000;0.000;2024-02-21T07:38:35;99608.31;;;22.52;55.92
84443;BME280;74681;0.000;0.000;2024-02-21T07:41:00;99627.47;;;22.52;55.72
84443;BME280;74681;0.000;0.000;2024-02-21T07:43:26;99617.63;;;22.51;55.85
84443;BME280;74681;0.000;0.000;2024-02-21T07:45:51;99626.66;;;22.52;55.68
84443;BME280;74681;0.000;0.000;2024-02-21T07:48:18;99626.66;;;22.52;56.11
84443;BME280;74681;0.000;0.000;2024-02-21T07:50:44;99630.47;;;22.51;55.86
84443;BME280;74681;0.000;0.000;2024-02-21T07:53:09;99628.56;;;22.51;55.70
84443;BME280;74681;0.000;0.000;2024-02-21T07:55:34;99620.34;;;22.51;55.83
84443;BME280;74681;0.000;0.000;2024-02-21T07:58:00;99627.75;;;22.51;55.87
84443;BME280;74681;0.000;0.000;2024-02-21T08:00:25;99634.03;;;22.51;55.66
84443;BME280;74681;0.000;0.000;2024-02-21T08:02:50;99639.53;;;22.51;55.86
84443;BME280;74681;0.000;0.000;2024-02-21T08:05:16;99641.44;;;22.51;55.56
84443;BME280;74681;0.000;0.000;2024-02-21T08:07:41;99635.94;;;22.51;55.72
84443;BME280;74681;0.000;0.000;2024-02-21T08:10:07;99635.94;;;22.51;55.49
84443;BME280;74681;0.000;0.000;2024-02-21T08:12:33;99631.59;;;22.50;55.22
84443;BME280;74681;0.000;0.000;2024-02-21T08:14:58;99635.44;;;22.49;55.58
84443;BME280;74681;0.000;0.000;2024-02-21T08:17:23;99626.13;;;22.50;55.62
84443;BME280;74681;0.000;0.000;2024-02-21T08:19:49;99626.13;;;22.50;55.40
84443;BME280;74681;0.000;0.000;2024-02-21T08:22:14;99622.28;;;22.51;55.22
84443;BME280;74681;0.000;0.000;2024-02-21T08:24:39;99628.88;;;22.50;55.41
84443;BME280;74681;0.000;0.000;2024-02-21T08:27:05;99621.44;;;22.50;55.37
84443;BME280;74681;0.000;0.000;2024-02-21T08:29:31;99626.13;;;22.50;55.25
84443;BME280;74681;0.000;0.000;2024-02-21T08:31:56;99625.31;;;22.49;55.02
84443;BME280;74681;0.000;0.000;2024-02-21T08:34:21;99626.38;;;22.48;54.98
84443;BME280;74681;0.000;0.000;2024-02-21T08:36:46;99622.81;;;22.48;55.08
84443;BME280;74681;0.000;0.000;2024-02-21T08:39:12;99623.66;;;22.48;54.72
84443;BME280;74681;0.000;0.000;2024-02-21T08:41:41;99625.56;;;22.48;54.60
84443;BME280;74681;0.000;0.000;2024-02-21T08:44:07;99613.78;;;22.47;54.71
84443;BME280;74681;0.000;0.000;2024-02-21T08:46:32;99623.94;;;22.47;54.88
84443;BME280;74681;0.000;0.000;2024-02-21T08:48:57;99612.72;;;22.48;54.73
84443;BME280;74681;0.000;0.000;2024-02-21T08:51:23;99621.75;;;22.49;54.46
84443;BME280;74681;0.000;0.000;2024-02-21T08:53:48;99613.00;;;22.47;54.53
84443;BME280;74681;0.000;0.000;2024-02-21T08:56:14;99617.34;;;22.48;54.57
84443;BME280;74681;0.000;0.000;2024-02-21T08:58:40;99613.78;;;22.47;54.57
84443;BME280;74681;0.000;0.000;2024-02-21T09:01:06;99618.47;;;22.47;54.44
84443;BME280;74681;0.000;0.000;2024-02-21T09:03:35;99620.91;;;22.48;54.47
84443;BME280;74681;0.000;0.000;2024-02-21T09:06:01;99613.25;;;22.45;54.43
84443;BME280;74681;0.000;0.000;2024-02-21T09:08:26;99620.38;;;22.46;54.22
84443;BME280;74681;0.000;0.000;2024-02-21T09:10:51;99612.19;;;22.46;54.35
84443;BME280;74681;0.000;0.000;2024-02-21T09:13:17;99618.47;;;22.47;54.28
84443;BME280;74681;0.000;0.000;2024-02-21T09:15:43;99623.13;;;22.46;54.24
84443;BME280;74681;0.000;0.000;2024-02-21T09:18:08;99626.69;;;22.47;54.17
84443;BME280;74681;0.000;0.000;2024-02-21T09:20:33;99620.38;;;22.46;54.03
84443;BME280;74681;0.000;0.000;2024-02-21T09:22:59;99630.22;;;22.47;54.06
84443;BME280;74681;0.000;0.000;2024-02-21T09:25:24;99628.59;;;22.46;54.14
84443;BME280;74681;0.000;0.000;2024-02-21T09:27:49;99629.41;;;22.47;53.80
84443;BME280;74681;0.000;0.000;2024-02-21T09:30:17;99626.13;;;22.45;53.71
84443;BME280;74681;0.000;0.000;2024-02-21T09:32:42;99620.94;;;22.43;53.46
84443;BME280;74681;0.000;0.000;2024-02-21T09:35:07;99626.41;;;22.43;53.52
84443;BME280;74681;0.000;0.000;2024-02-21T09:37:33;99620.72;;;22.30;49.00
84443;BME280;74681;0.000;0.000;2024-02-21T09:39:59;99619.66;;;22.11;45.27
84443;BME280;74681;0.000;0.000;2024-02-21T09:42:26;99627.00;;;22.20;48.52
84443;BME280;74681;0.000;0.000;2024-02-21T09:44:56;99619.63;;;22.26;49.78
84443;BME280;74681;0.000;0.000;2024-02-21T09:47:30;99618.25;;;22.28;50.41
84443;BME280;74681;0.000;0.000;2024-02-21T09:50:00;99623.44;;;22.30;50.75
84443;BME280;74681;0.000;0.000;2024-02-21T09:52:28;99619.88;;;22.29;50.93
84443;BME280;74681;0.000;0.000;2024-02-21T09:54:53;99625.06;;;22.31;51.15
84443;BME280;74681;0.000;0.000;2024-02-21T09:57:19;99616.06;;;22.30;51.05
84443;BME280;74681;0.000;0.000;2024-02-21T09:59:45;99609.78;;;22.30;51.10
84443;BME280;74681;0.000;0.000;2024-02-21T10:02:11;99604.28;;;22.30;51.27
84443;BME280;74681;0.000;0.000;2024-02-21T10:04:37;99600.75;;;22.29;51.19
84443;BME280;74681;0.000;0.000;2024-02-21T10:07:04;99600.75;;;22.29;51.41
84443;BME280;74681;0.000;0.000;2024-02-21T10:09:29;99607.03;;;22.30;51.49
84443;BME280;74681;0.000;0.000;2024-02-21T10:11:55;99609.78;;;22.30;51.52
84443;BME280;74681;0.000;0.000;2024-02-21T10:14:21;99608.13;;;22.29;51.57
84443;BME280;74681;0.000;0.000;2024-02-21T10:16:56;99603.47;;;22.29;51.65
84443;BME280;74681;0.000;0.000;2024-02-21T10:19:23;99605.13;;;22.30;51.66
84443;BME280;74681;0.000;0.000;2024-02-21T10:22:04;99592.25;;;22.31;51.73
84443;BME280;74681;0.000;0.000;2024-02-21T10:24:30;99596.09;;;22.30;51.78
84443;BME280;74681;0.000;0.000;2024-02-21T10:27:08;99594.19;;;22.30;51.81
84443;BME280;74681;0.000;0.000;2024-02-21T10:29:35;99585.97;;;22.30;51.71
84443;BME280;74681;0.000;0.000;2024-02-21T10:32:04;99582.41;;;22.30;51.80
84443;BME280;74681;0.000;0.000;2024-02-21T10:34:31;99577.75;;;22.30;51.81
84443;BME280;74681;0.000;0.000;2024-02-21T10:37:02;99582.41;;;22.30;51.70
84443;BME280;74681;0.000;0.000;2024-02-21T10:39:28;99569.56;;;22.30;51.78
84443;BME280;74681;0.000;0.000;2024-02-21T10:41:54;99580.50;;;22.30;51.76
84443;BME280;74681;0.000;0.000;2024-02-21T10:44:21;99576.94;;;22.30;51.80
84443;BME280;74681;0.000;0.000;2024-02-21T10:46:48;99570.66;;;22.29;51.73
84443;BME280;74681;0.000;0.000;2024-02-21T10:49:16;99563.25;;;22.30;51.99
84443;BME280;74681;0.000;0.000;2024-02-21T10:51:45;99557.78;;;22.30;51.89
84443;BME280;74681;0.000;0.000;2024-02-21T10:54:30;99553.41;;;22.29;51.83
84443;BME280;74681;0.000;0.000;2024-02-21T10:57:00;99546.84;;;22.30;51.71
84443;BME280;74681;0.000;0.000;2024-02-21T10:59:26;99540.25;;;22.31;51.67
84443;BME280;74681;0.000;0.000;2024-02-21T11:01:52;99535.91;;;22.30;51.81
84443;BME280;74681;0.000;0.000;2024-02-21T11:04:17;99537.53;;;22.31;51.82
84443;BME280;74681;0.000;0.000;2024-02-21T11:06:43;99531.25;;;22.30;51.74
84443;BME280;74681;0.000;0.000;2024-02-21T11:09:09;99525.78;;;22.30;51.71
84443;BME280;74681;0.000;0.000;2024-02-21T11:11:39;99518.38;;;22.31;51.71
84443;BME280;74681;0.000;0.000;2024-02-21T11:14:11;99516.47;;;22.31;51.69
84443;BME280;74681;0.000;0.000;2024-02-21T11:16:42;99508.25;;;22.31;51.77
84443;BME280;74681;0.000;0.000;2024-02-21T11:19:09;99507.44;;;22.31;51.73
84443;BME280;74681;0.000;0.000;2024-02-21T11:21:36;99499.22;;;22.31;51.82
84443;BME280;74681;0.000;0.000;2024-02-21T11:24:05;99501.69;;;22.32;51.69
84443;BME280;74681;0.000;0.000;2024-02-21T11:26:31;99501.69;;;22.32;51.61
84443;BME280;74681;0.000;0.000;2024-02-21T11:29:05;99494.31;;;22.33;51.67
84443;BME280;74681;0.000;0.000;2024-02-21T11:31:43;99488.84;;;22.33;51.80
84443;BME280;74681;0.000;0.000;2024-02-21T11:34:11;99492.66;;;22.32;51.58
84443;BME280;74681;0.000;0.000;2024-02-21T11:36:36;99491.00;;;22.31;51.96
84443;BME280;74681;0.000;0.000;2024-02-21T11:39:11;99482.81;;;22.31;51.90
84443;BME280;74681;0.000;0.000;2024-02-21T11:41:36;99487.19;;;22.32;51.94
84443;BME280;74681;0.000;0.000;2024-02-21T12:08:59;99472.69;;;22.31;52.20
84443;BME280;74681;0.000;0.000;2024-02-21T12:11:24;99475.41;;;22.31;52.15
84443;BME280;74681;0.000;0.000;2024-02-21T12:25:23;99459.84;;;22.32;52.26
84443;BME280;74681;0.000;0.000;2024-02-21T12:27:51;99463.38;;;22.32;52.39
84443;BME280;74681;0.000;0.000;2024-02-21T12:30:16;99457.91;;;22.32;52.27
84443;BME280;74681;0.000;0.000;2024-02-21T12:32:42;99460.34;;;22.34;52.01
84443;BME280;74681;0.000;0.000;2024-02-21T12:35:07;99456.81;;;22.33;52.30
84443;BME280;74681;0.000;0.000;2024-02-21T12:37:33;99449.41;;;22.34;52.23
84443;BME280;74681;0.000;0.000;2024-02-21T12:39:58;99448.63;;;22.33;52.08
84443;BME280;74681;0.000;0.000;2024-02-21T12:42:23;99454.09;;;22.33;52.14
84443;BME280;74681;0.000;0.000;2024-02-21T12:44:53;99454.09;;;22.33;52.30
84443;BME280;74681;0.000;0.000;2024-02-21T12:47:19;99441.50;;;22.32;52.17
84443;BME280;74681;0.000;0.000;2024-02-21T12:49:48;99442.31;;;22.33;52.20
84443;BME280;74681;0.000;0.000;2024-02-21T12:52:13;99439.59;;;22.33;51.92
84443;BME280;74681;0.000;0.000;2024-02-21T13:10:32;99413.31;;;22.32;51.89
84443;BME280;74681;0.000;0.000;2024-02-21T13:13:01;99419.63;;;22.32;51.93
84443;BME280;74681;0.000;0.000;2024-02-21T13:15:26;99410.59;;;22.32;51.76
84443;BME280;74681;0.000;0.000;2024-02-21T13:17:53;99404.03;;;22.33;51.85
84443;BME280;74681;0.000;0.000;2024-02-21T13:20:19;99403.19;;;22.32;51.97
84443;BME280;74681;0.000;0.000;2024-02-21T13:22:44;99401.28;;;22.33;51.92
84443;BME280;74681;0.000;0.000;2024-02-21T13:25:09;99402.38;;;22.32;51.96
84443;BME280;74681;0.000;0.000;2024-02-21T13:27:35;99402.38;;;22.32;51.79
84443;BME280;74681;0.000;0.000;2024-02-21T13:30:01;99405.94;;;22.32;51.89
84443;BME280;74681;0.000;0.000;2024-02-21T13:32:30;99405.13;;;22.32;51.96
84443;BME280;74681;0.000;0.000;2024-02-21T13:34:56;99396.91;;;22.32;51.83
84443;BME280;74681;0.000;0.000;2024-02-21T13:37:21;99398.00;;;22.31;51.87
84443;BME280;74681;0.000;0.000;2024-02-21T13:39:46;99390.63;;;22.31;51.78
84443;BME280;74681;0.000;0.000;2024-02-21T13:42:12;99387.06;;;22.31;51.75
84443;BME280;74681;0.000;0.000;2024-02-21T13:44:38;99376.09;;;22.31;51.77
84443;BME280;74681;0.000;0.000;2024-02-21T13:47:03;99375.03;;;22.32;51.88
84443;BME280;74681;0.000;0.000;2024-02-21T13:49:29;99362.44;;;22.31;51.78
84443;BME280;74681;0.000;0.000;2024-02-21T13:51:55;99360.53;;;22.31;51.98
84443;BME280;74681;0.000;0.000;2024-02-21T13:54:20;99357.78;;;22.31;51.68
84443;BME280;74681;0.000;0.000;2024-02-21T13:56:46;99363.25;;;22.31;51.88
84443;BME280;74681;0.000;0.000;2024-02-21T13:59:13;99361.63;;;22.30;51.65
84443;BME280;74681;0.000;0.000;2024-02-21T14:01:38;99363.25;;;22.31;51.81